KPIR/PIR METAR and TAF weather

Enter ICAO airport designator
Station Type Date Time Source
KPIR METAR 2020/08/05 23:53 UTC NOAA

KPIR 052353Z AUTO 04009KT 10SM CLR 28/16 A2990 RMK AO2 SLP114 T02830156 10306 20211 55005


Station Type Date Time Source
KPIR Decoded METAR 2020/08/05 23:53 UTC NOAA

PIERRE REGIONAL AIRPORT, SD, United States (KPIR) 44-23N 100-17W 526M
Aug 05, 2020 - 07:53 PM EDT / 2020.08.05 2353 UTC
Wind: from the NE (040 degrees) at 10 MPH (9 KT):0
Visibility: 10 mile(s):0
Sky conditions: clear
Temperature: 82.9 F (28.3 C)
Dew Point: 60.1 F (15.6 C)
Relative Humidity: 46%
Pressure (altimeter): 29.9 in. Hg (1012 hPa)
Pressure tendency: 0.01 inches (0.5 hPa) lower than three hours ago
ob: KPIR 052353Z AUTO 04009KT 10SM CLR 28/16 A2990 RMK AO2 SLP114 T02830156 10306 20211 55005
cycle: 0

Station Type Date Time Source
KPIR TAF 2020/08/05 18:28 UTC NOAA

TAF KPIR 051726Z 0518/0618 24004KT P6SM OVC005
FM052000 31008KT P6SM FEW060 FEW150
FM060100 34006KT P6SM SKC
FM061200 09005KT 6SM BR FEW090

Example: see airport list